createdAt,value
2018-01-26T00:00:20.945Z,7.40
2018-01-26T00:01:20.885Z,6.10
2018-01-26T00:02:20.827Z,6.90
2018-01-26T00:03:20.766Z,7.60
2018-01-26T00:04:20.706Z,6.50
2018-01-26T00:05:20.646Z,7.20
2018-01-26T00:06:20.585Z,5.80
2018-01-26T00:07:20.528Z,6.40
2018-01-26T00:08:20.519Z,7.30
2018-01-26T00:09:20.408Z,7.60
2018-01-26T00:10:20.348Z,6.70
2018-01-26T00:11:20.286Z,6.90
2018-01-26T00:12:20.230Z,7.30
2018-01-26T00:13:20.168Z,6.10
2018-01-26T00:14:20.108Z,7.60
2018-01-26T00:15:20.047Z,6.60
2018-01-26T00:16:19.988Z,6.40
2018-01-26T00:17:19.928Z,6.00
2018-01-26T00:18:19.867Z,6.20
2018-01-26T00:19:19.810Z,5.90
2018-01-26T00:20:19.748Z,5.60
2018-01-26T00:21:19.688Z,5.40
2018-01-26T00:22:19.629Z,6.20
2018-01-26T00:23:19.568Z,7.00
2018-01-26T00:24:19.509Z,5.50
2018-01-26T00:25:19.451Z,5.90
2018-01-26T00:26:19.389Z,5.80
2018-01-26T00:27:19.328Z,7.40
2018-01-26T00:28:19.269Z,5.40
2018-01-26T00:29:19.207Z,5.20
2018-01-26T00:30:19.148Z,6.50
2018-01-26T00:31:19.095Z,7.00
2018-01-26T00:32:19.028Z,5.40
2018-01-26T00:33:18.968Z,4.80
2018-01-26T00:34:18.907Z,7.10
2018-01-26T00:35:18.846Z,4.80
2018-01-26T00:36:18.789Z,5.50
2018-01-26T00:37:18.728Z,8.60
2018-01-26T00:38:18.665Z,4.80
2018-01-26T00:39:18.606Z,5.40
2018-01-26T00:40:18.547Z,4.50
2018-01-26T00:41:18.485Z,5.60
2018-01-26T00:42:18.432Z,4.90
2018-01-26T00:43:18.365Z,5.20
2018-01-26T00:44:18.305Z,5.00
2018-01-26T00:45:18.248Z,5.60
2018-01-26T00:46:18.185Z,4.30
2018-01-26T00:47:18.169Z,5.40
2018-01-26T00:48:18.065Z,5.80
2018-01-26T00:49:18.006Z,5.60
2018-01-26T00:50:17.944Z,4.80
2018-01-26T00:51:17.930Z,6.20
2018-01-26T00:52:17.825Z,4.50
2018-01-26T00:53:17.766Z,5.40
2018-01-26T00:54:17.704Z,6.20
2018-01-26T00:55:17.643Z,6.50
2018-01-26T00:56:17.594Z,6.80
2018-01-26T00:57:17.523Z,7.30
2018-01-26T00:58:17.463Z,4.30
2018-01-26T00:59:17.402Z,5.50
2018-01-26T01:00:17.341Z,5.70
2018-01-26T01:01:17.282Z,4.80
2018-01-26T01:02:17.219Z,5.30
2018-01-26T01:03:17.159Z,7.30
2018-01-26T01:04:17.099Z,7.20
2018-01-26T01:05:17.040Z,5.40
2018-01-26T01:06:16.976Z,6.50
2018-01-26T01:07:16.918Z,7.90
2018-01-26T01:08:16.861Z,6.00
2018-01-26T01:09:16.798Z,4.90
2018-01-26T01:10:16.740Z,5.20
2018-01-26T01:11:16.676Z,4.90
2018-01-26T01:12:16.616Z,5.40
2018-01-26T01:13:16.557Z,4.50
2018-01-26T01:14:16.497Z,6.00
2018-01-26T01:15:16.436Z,5.30
2018-01-26T01:16:16.376Z,4.80
2018-01-26T01:17:16.313Z,4.90
2018-01-26T01:18:16.262Z,6.20
2018-01-26T01:19:16.197Z,6.70
2018-01-26T01:20:16.136Z,6.40
2018-01-26T01:21:16.075Z,11.80
2018-01-26T01:22:16.021Z,7.90
2018-01-26T01:23:15.954Z,6.40
2018-01-26T01:24:15.894Z,5.10
2018-01-26T01:25:15.833Z,6.70
2018-01-26T01:26:15.773Z,7.30
2018-01-26T01:27:15.712Z,7.20
2018-01-26T01:28:15.652Z,5.80
2018-01-26T01:29:15.594Z,10.60
2018-01-26T01:30:15.529Z,9.40
2018-01-26T01:31:15.471Z,7.00
2018-01-26T01:32:15.411Z,5.70
2018-01-26T01:33:15.352Z,9.40
2018-01-26T01:34:15.288Z,7.40
2018-01-26T01:35:15.233Z,6.60
2018-01-26T01:36:15.169Z,6.30
2018-01-26T01:37:15.111Z,6.80
2018-01-26T01:38:15.049Z,8.30
2018-01-26T01:39:14.988Z,7.60
2018-01-26T01:40:14.928Z,8.40
2018-01-26T01:41:14.867Z,8.50
2018-01-26T01:42:14.807Z,8.00
2018-01-26T01:43:14.748Z,9.10
2018-01-26T01:44:14.687Z,8.30
2018-01-26T01:45:14.636Z,7.50
2018-01-26T01:46:14.565Z,8.00
2018-01-26T01:47:14.504Z,8.90
2018-01-26T01:48:14.453Z,7.10
2018-01-26T01:49:14.390Z,8.70
2018-01-26T01:50:14.324Z,8.20
2018-01-26T01:51:14.263Z,9.90
2018-01-26T01:52:14.206Z,10.00
2018-01-26T01:53:14.143Z,8.50
2018-01-26T01:54:14.080Z,7.90
2018-01-26T01:55:14.021Z,6.50
2018-01-26T01:56:13.962Z,6.50
2018-01-26T01:57:13.905Z,6.80
2018-01-26T01:58:13.853Z,8.10
2018-01-26T01:59:13.779Z,9.70
2018-01-26T02:00:13.718Z,7.60
2018-01-26T02:01:13.667Z,8.00
2018-01-26T02:02:13.598Z,6.90
2018-01-26T02:03:13.531Z,6.90
2018-01-26T02:04:13.482Z,7.10
2018-01-26T02:05:13.417Z,8.10
2018-01-26T02:06:13.355Z,6.80
2018-01-26T02:07:13.296Z,9.50
2018-01-26T02:08:13.233Z,8.80
2018-01-26T02:09:13.176Z,9.20
2018-01-26T02:10:13.115Z,7.90
2018-01-26T02:11:13.049Z,11.70
2018-01-26T02:12:12.990Z,7.90
2018-01-26T02:13:12.933Z,7.90
2018-01-26T02:14:12.870Z,7.10
2018-01-26T02:15:12.809Z,7.80
2018-01-26T02:16:12.749Z,8.70
2018-01-26T02:17:12.684Z,10.20
2018-01-26T02:18:12.625Z,7.00
2018-01-26T02:19:12.566Z,8.20
2018-01-26T02:20:12.503Z,8.20
2018-01-26T02:21:12.441Z,7.90
2018-01-26T02:22:12.378Z,8.70
2018-01-26T02:23:12.319Z,7.10
2018-01-26T02:24:12.261Z,7.80
2018-01-26T02:25:12.201Z,7.00
2018-01-26T02:26:12.143Z,6.60
2018-01-26T02:27:12.075Z,5.80
2018-01-26T02:28:12.013Z,6.40
2018-01-26T02:29:11.953Z,5.80
2018-01-26T02:30:11.892Z,6.80
2018-01-26T02:31:11.832Z,6.10
2018-01-26T02:32:11.771Z,6.20
2018-01-26T02:33:11.709Z,6.50
2018-01-26T02:34:11.646Z,6.40
2018-01-26T02:35:11.587Z,7.30
2018-01-26T02:36:11.534Z,7.50
2018-01-26T02:37:11.471Z,6.30
2018-01-26T02:38:11.404Z,7.40
2018-01-26T02:39:11.342Z,7.30
2018-01-26T02:40:11.290Z,7.70
2018-01-26T02:41:11.219Z,7.20
2018-01-26T02:42:11.160Z,6.00
2018-01-26T02:43:11.102Z,7.00
2018-01-26T02:44:11.035Z,5.50
2018-01-26T02:45:10.969Z,8.30
2018-01-26T02:46:10.915Z,6.20
2018-01-26T02:47:10.853Z,7.80
2018-01-26T02:48:10.793Z,6.80
2018-01-26T02:49:10.733Z,5.90
2018-01-26T02:50:10.670Z,8.50
2018-01-26T02:51:10.609Z,5.60
2018-01-26T02:52:10.546Z,8.50
2018-01-26T02:53:10.487Z,7.30
2018-01-26T02:54:10.430Z,8.30
2018-01-26T02:55:10.365Z,8.00
2018-01-26T02:56:10.303Z,8.00
2018-01-26T02:57:10.244Z,7.70
2018-01-26T02:58:10.180Z,6.20
2018-01-26T02:59:10.122Z,7.20
2018-01-26T03:00:10.060Z,8.90
2018-01-26T03:01:10.050Z,10.30
2018-01-26T03:02:09.936Z,7.90
2018-01-26T03:03:09.876Z,7.20
2018-01-26T03:04:09.814Z,6.10
2018-01-26T03:05:09.756Z,7.60
2018-01-26T03:06:09.692Z,6.90
2018-01-26T03:07:09.632Z,6.20
2018-01-26T03:08:09.575Z,7.30
2018-01-26T03:09:09.510Z,9.40
2018-01-26T03:10:09.447Z,9.10
2018-01-26T03:11:09.387Z,6.30
2018-01-26T03:12:09.328Z,7.70
2018-01-26T03:13:09.265Z,7.40
2018-01-26T03:14:09.205Z,7.40
2018-01-26T03:15:09.144Z,6.60
2018-01-26T03:16:09.082Z,9.00
2018-01-26T03:17:09.023Z,9.50
2018-01-26T03:18:08.961Z,9.10
2018-01-26T03:19:08.903Z,7.10
2018-01-26T03:20:08.838Z,7.40
2018-01-26T03:21:08.776Z,7.50
2018-01-26T03:22:08.716Z,9.50
2018-01-26T03:23:08.657Z,7.00
2018-01-26T03:24:08.592Z,8.90
2018-01-26T03:25:08.530Z,8.70
2018-01-26T03:26:08.469Z,6.90
2018-01-26T03:27:08.410Z,10.40
2018-01-26T03:28:08.347Z,9.30
2018-01-26T03:29:08.287Z,6.40
2018-01-26T03:30:08.226Z,8.70
2018-01-26T03:31:08.163Z,7.70
2018-01-26T03:32:08.102Z,8.20
2018-01-26T03:33:08.040Z,8.30
2018-01-26T03:34:07.979Z,8.00
2018-01-26T03:35:07.920Z,11.50
2018-01-26T03:36:07.858Z,7.30
2018-01-26T03:37:07.797Z,9.40
2018-01-26T03:38:07.733Z,8.40
2018-01-26T03:39:07.671Z,9.00
2018-01-26T03:40:07.616Z,7.80
2018-01-26T03:41:07.551Z,7.70
2018-01-26T03:42:07.489Z,11.00
2018-01-26T03:43:07.427Z,9.80
2018-01-26T03:44:07.365Z,9.10
2018-01-26T03:45:07.304Z,8.70
2018-01-26T03:46:07.242Z,7.90
2018-01-26T03:47:07.180Z,9.40
2018-01-26T03:48:07.128Z,8.60
2018-01-26T03:49:07.062Z,8.20
2018-01-26T03:50:06.997Z,8.50
2018-01-26T03:51:06.937Z,10.40
2018-01-26T03:52:06.876Z,8.20
2018-01-26T03:53:06.814Z,12.40
2018-01-26T03:54:06.753Z,7.90
2018-01-26T03:55:06.690Z,9.80
2018-01-26T03:56:06.631Z,7.80
2018-01-26T03:57:06.568Z,9.60
2018-01-26T03:58:06.505Z,9.40
2018-01-26T03:59:06.444Z,8.30
2018-01-26T04:00:06.383Z,11.50
2018-01-26T04:01:06.323Z,10.30
2018-01-26T04:02:06.262Z,7.70
2018-01-26T04:03:06.201Z,10.20
2018-01-26T04:04:06.138Z,9.00
2018-01-26T04:05:06.078Z,10.60
2018-01-26T04:06:06.016Z,11.30
2018-01-26T04:07:05.953Z,9.70
2018-01-26T04:08:05.894Z,8.30
2018-01-26T04:09:05.831Z,10.20
2018-01-26T04:10:05.771Z,11.10
2018-01-26T04:11:05.709Z,10.70
2018-01-26T04:12:05.652Z,9.90
2018-01-26T04:13:05.592Z,10.40
2018-01-26T04:14:05.526Z,11.50
2018-01-26T04:15:05.466Z,9.50
2018-01-26T04:16:05.403Z,8.90
2018-01-26T04:17:05.342Z,9.90
2018-01-26T04:18:05.281Z,10.80
2018-01-26T04:19:05.218Z,9.40
2018-01-26T04:20:05.157Z,10.10
2018-01-26T04:21:05.095Z,10.00
2018-01-26T04:22:05.037Z,10.40
2018-01-26T04:23:04.976Z,9.80
2018-01-26T04:24:04.913Z,8.70
2018-01-26T04:25:04.854Z,9.80
2018-01-26T04:26:04.789Z,10.40
2018-01-26T04:27:04.729Z,10.40
2018-01-26T04:28:04.668Z,11.20
2018-01-26T04:29:04.606Z,9.80
2018-01-26T04:30:04.544Z,8.90
2018-01-26T04:31:04.481Z,9.70
2018-01-26T04:32:04.420Z,10.30
2018-01-26T04:33:04.361Z,10.10
2018-01-26T04:34:04.298Z,12.00
2018-01-26T04:35:04.237Z,11.70
2018-01-26T04:36:04.178Z,9.20
2018-01-26T04:37:04.117Z,9.80
2018-01-26T04:38:04.054Z,8.60
2018-01-26T04:39:03.992Z,9.90
2018-01-26T04:40:03.931Z,8.50
2018-01-26T04:41:03.869Z,10.50
2018-01-26T04:42:03.808Z,10.60
2018-01-26T04:43:03.746Z,9.60
2018-01-26T04:44:03.687Z,10.10
2018-01-26T04:45:03.624Z,10.10
2018-01-26T04:46:03.562Z,10.70
2018-01-26T04:47:03.503Z,9.30
2018-01-26T04:48:03.439Z,10.40
2018-01-26T04:49:03.380Z,8.90
2018-01-26T04:50:03.320Z,10.30
2018-01-26T04:51:03.256Z,9.40
2018-01-26T04:52:03.197Z,10.70
2018-01-26T04:53:03.136Z,11.10
2018-01-26T04:54:03.071Z,9.80
2018-01-26T04:55:03.018Z,12.00
2018-01-26T04:56:02.952Z,9.30
2018-01-26T04:57:02.891Z,9.60
2018-01-26T04:58:02.830Z,10.90
2018-01-26T04:59:02.766Z,9.60
2018-01-26T05:00:02.706Z,9.70
2018-01-26T05:01:02.645Z,10.20
2018-01-26T05:02:02.584Z,12.00
2018-01-26T05:03:02.522Z,9.70
2018-01-26T05:04:02.460Z,13.40
2018-01-26T05:05:02.403Z,10.50
2018-01-26T05:06:02.338Z,8.70
2018-01-26T05:07:02.278Z,9.20
2018-01-26T05:08:02.218Z,9.10
2018-01-26T05:09:02.157Z,10.30
2018-01-26T05:10:02.097Z,8.70
2018-01-26T05:11:02.036Z,9.40
2018-01-26T05:12:01.974Z,9.40
2018-01-26T05:13:01.914Z,10.80
2018-01-26T05:14:01.852Z,10.00
2018-01-26T05:15:01.789Z,9.50
2018-01-26T05:16:01.727Z,10.00
2018-01-26T05:17:01.667Z,9.20
2018-01-26T05:18:01.608Z,12.50
2018-01-26T05:19:01.547Z,13.10
2018-01-26T05:20:01.485Z,14.00
2018-01-26T05:21:01.424Z,13.10
2018-01-26T05:22:01.361Z,9.70
2018-01-26T05:23:01.300Z,11.60
2018-01-26T05:24:01.239Z,10.90
2018-01-26T05:25:01.179Z,12.20
2018-01-26T05:26:01.117Z,11.30
2018-01-26T05:27:01.057Z,11.60
2018-01-26T05:28:00.994Z,11.50
2018-01-26T05:29:00.956Z,11.10
2018-01-26T05:30:00.870Z,9.10
2018-01-26T05:31:00.809Z,9.10
2018-01-26T05:32:00.749Z,14.00
2018-01-26T05:33:00.688Z,10.70
2018-01-26T05:34:00.627Z,12.00
2018-01-26T05:35:00.565Z,10.40
2018-01-26T05:36:00.505Z,12.20
2018-01-26T05:37:00.442Z,11.90
2018-01-26T05:38:00.380Z,10.10
2018-01-26T05:39:00.321Z,10.00
2018-01-26T05:40:00.259Z,9.70
2018-01-26T05:41:00.196Z,11.70
2018-01-26T05:42:00.135Z,9.10
2018-01-26T05:43:00.074Z,11.10
2018-01-26T05:44:00.062Z,11.90
2018-01-26T05:44:59.952Z,11.00
2018-01-26T05:45:59.890Z,12.20
2018-01-26T05:46:59.829Z,14.70
2018-01-26T05:47:59.768Z,12.10
2018-01-26T05:48:59.706Z,11.20
2018-01-26T05:49:59.645Z,13.10
2018-01-26T05:50:59.584Z,11.20
2018-01-26T05:51:59.524Z,11.90
2018-01-26T05:52:59.463Z,14.60
2018-01-26T05:53:59.400Z,11.40
2018-01-26T05:54:59.341Z,15.90
2018-01-26T05:55:59.302Z,12.10
2018-01-26T05:56:59.219Z,11.50
2018-01-26T05:57:59.156Z,13.50
2018-01-26T05:58:59.098Z,13.70
2018-01-26T05:59:59.035Z,13.40
2018-01-26T06:00:58.971Z,13.00
2018-01-26T06:01:58.911Z,14.10
2018-01-26T06:02:58.852Z,13.10
2018-01-26T06:03:58.787Z,12.70
2018-01-26T06:04:58.729Z,15.10
2018-01-26T06:05:58.668Z,14.20
2018-01-26T06:06:58.605Z,13.20
2018-01-26T06:07:58.546Z,14.10
2018-01-26T06:08:58.483Z,12.50
2018-01-26T06:09:58.421Z,13.20
2018-01-26T06:10:58.359Z,14.20
2018-01-26T06:11:58.299Z,15.00
2018-01-26T06:12:58.238Z,12.70
2018-01-26T06:13:58.175Z,13.10
2018-01-26T06:14:58.115Z,14.30
2018-01-26T06:15:58.054Z,14.30
2018-01-26T06:16:57.992Z,13.90
2018-01-26T06:17:57.933Z,15.50
2018-01-26T06:18:57.870Z,13.40
2018-01-26T06:19:57.809Z,11.30
2018-01-26T06:20:57.747Z,14.20
2018-01-26T06:21:57.687Z,12.60
2018-01-26T06:22:57.624Z,15.30
2018-01-26T06:23:57.563Z,13.30
2018-01-26T06:24:57.502Z,12.30
2018-01-26T06:25:57.440Z,14.70
2018-01-26T06:26:57.379Z,15.50
2018-01-26T06:27:57.318Z,12.90
2018-01-26T06:28:57.256Z,15.30
2018-01-26T06:29:57.194Z,16.30
2018-01-26T06:30:57.133Z,17.50
2018-01-26T06:31:57.073Z,14.70
2018-01-26T06:32:57.012Z,16.10
2018-01-26T06:33:56.949Z,13.30
2018-01-26T06:34:56.888Z,13.80
2018-01-26T06:35:56.825Z,12.10
2018-01-26T06:36:56.766Z,14.00
2018-01-26T06:37:56.704Z,15.60
2018-01-26T06:38:56.640Z,14.20
2018-01-26T06:39:56.581Z,15.20
2018-01-26T06:40:56.518Z,13.50
2018-01-26T06:41:56.456Z,15.10
2018-01-26T06:42:56.398Z,14.00
2018-01-26T06:43:56.334Z,15.80
2018-01-26T06:44:56.273Z,14.00
2018-01-26T06:45:56.211Z,13.30
2018-01-26T06:46:56.149Z,13.50
2018-01-26T06:47:56.089Z,15.60
2018-01-26T06:48:56.018Z,12.90
2018-01-26T06:49:55.966Z,14.90
2018-01-26T06:50:55.904Z,15.30
2018-01-26T06:51:55.841Z,15.50
2018-01-26T06:52:55.781Z,15.40
2018-01-26T06:53:55.719Z,15.60
2018-01-26T06:54:55.658Z,17.30
2018-01-26T06:55:55.598Z,13.50
2018-01-26T06:56:55.537Z,14.20
2018-01-26T06:57:55.475Z,16.30
2018-01-26T06:58:55.413Z,14.50
2018-01-26T06:59:55.351Z,18.10
2018-01-26T07:00:55.290Z,16.50
2018-01-26T07:01:55.245Z,18.30
2018-01-26T07:02:55.166Z,17.70
2018-01-26T07:03:55.105Z,14.40
2018-01-26T07:04:55.045Z,13.90
2018-01-26T07:05:54.984Z,15.00
2018-01-26T07:06:54.921Z,17.90
2018-01-26T07:07:54.861Z,16.20
2018-01-26T07:08:54.798Z,17.40
2018-01-26T07:09:54.737Z,18.70
2018-01-26T07:10:54.676Z,14.90
2018-01-26T07:11:54.615Z,14.40
2018-01-26T07:12:54.554Z,15.30
2018-01-26T07:13:54.490Z,16.40
2018-01-26T07:14:54.429Z,13.30
2018-01-26T07:15:54.373Z,15.30
2018-01-26T07:16:54.310Z,14.40
2018-01-26T07:17:54.252Z,15.00
2018-01-26T07:18:54.185Z,14.50
2018-01-26T07:19:54.124Z,15.40
2018-01-26T07:20:54.065Z,22.80
2018-01-26T07:21:54.002Z,18.60
2018-01-26T07:22:53.939Z,16.40
2018-01-26T07:23:53.882Z,16.60
2018-01-26T07:24:53.826Z,16.80
2018-01-26T07:25:53.760Z,12.70
2018-01-26T07:26:53.695Z,14.70
2018-01-26T07:27:53.632Z,16.20
2018-01-26T07:28:53.573Z,13.70
2018-01-26T07:29:53.510Z,15.20
2018-01-26T07:30:53.451Z,13.70
2018-01-26T07:31:53.387Z,15.20
2018-01-26T07:32:53.328Z,14.20
2018-01-26T07:33:53.267Z,13.10
2018-01-26T07:34:53.203Z,15.50
2018-01-26T07:35:53.144Z,15.70
2018-01-26T07:36:53.084Z,15.50
2018-01-26T07:37:53.024Z,17.40
2018-01-26T07:38:52.959Z,15.60
2018-01-26T07:39:52.897Z,14.00
2018-01-26T07:40:52.841Z,16.00
2018-01-26T07:41:52.775Z,15.80
2018-01-26T07:42:52.713Z,14.10
2018-01-26T07:43:52.656Z,15.50
2018-01-26T07:44:52.593Z,15.80
2018-01-26T07:45:52.534Z,15.70
2018-01-26T07:46:52.471Z,16.30
2018-01-26T07:47:52.410Z,16.20
2018-01-26T07:48:52.348Z,13.80
2018-01-26T07:49:52.288Z,13.60
2018-01-26T07:50:52.226Z,14.20
2018-01-26T07:51:52.165Z,16.30
2018-01-26T07:52:52.104Z,17.60
2018-01-26T07:53:52.044Z,16.30
2018-01-26T07:54:51.986Z,17.10
2018-01-26T07:55:51.922Z,14.70
2018-01-26T07:56:51.864Z,18.30
2018-01-26T07:57:51.800Z,20.60
2018-01-26T07:58:51.741Z,16.80
2018-01-26T07:59:51.679Z,13.40
2018-01-26T08:00:51.622Z,13.70
2018-01-26T08:01:51.557Z,14.80
2018-01-26T08:02:51.502Z,14.80
2018-01-26T08:03:51.439Z,15.70
2018-01-26T08:04:51.383Z,13.20
2018-01-26T08:05:51.317Z,18.90
2018-01-26T08:06:51.277Z,19.10
2018-01-26T08:07:51.193Z,17.30
2018-01-26T08:08:51.134Z,15.40
2018-01-26T08:09:51.071Z,15.20
2018-01-26T08:10:51.011Z,17.90
2018-01-26T08:11:50.942Z,18.70
2018-01-26T08:12:50.889Z,17.90
2018-01-26T08:13:50.830Z,15.50
2018-01-26T08:14:50.768Z,14.30
2018-01-26T08:15:50.706Z,19.50
2018-01-26T08:16:50.645Z,15.50
2018-01-26T08:17:50.585Z,17.40
2018-01-26T08:18:50.526Z,18.60
2018-01-26T08:19:50.466Z,16.10
2018-01-26T08:20:50.407Z,18.30
2018-01-26T08:21:50.345Z,17.10
2018-01-26T08:22:50.284Z,17.90
2018-01-26T08:23:50.222Z,19.70
2018-01-26T08:24:50.180Z,19.50
2018-01-26T08:25:50.108Z,15.60
2018-01-26T08:26:50.041Z,15.70
2018-01-26T08:27:49.981Z,14.90
2018-01-26T08:28:49.919Z,15.20
2018-01-26T08:29:49.862Z,19.60
2018-01-26T08:30:49.800Z,17.20
2018-01-26T08:31:49.742Z,16.10
2018-01-26T08:32:49.679Z,17.30
2018-01-26T08:33:49.621Z,15.90
2018-01-26T08:34:49.557Z,14.00
2018-01-26T08:35:49.503Z,15.20
2018-01-26T08:36:49.440Z,17.40
2018-01-26T08:37:49.376Z,17.20
2018-01-26T08:38:49.316Z,14.90
2018-01-26T08:39:49.257Z,13.90
2018-01-26T08:40:49.197Z,12.80
2018-01-26T08:41:49.137Z,17.10
2018-01-26T08:42:49.077Z,18.50
2018-01-26T08:43:49.016Z,16.90
2018-01-26T08:44:48.956Z,14.60
2018-01-26T08:45:48.896Z,15.10
2018-01-26T08:46:48.835Z,18.40
2018-01-26T08:47:48.776Z,14.40
2018-01-26T08:48:48.717Z,14.40
2018-01-26T08:49:48.653Z,14.80
2018-01-26T08:50:48.595Z,16.40
2018-01-26T08:51:48.539Z,15.30
2018-01-26T08:52:48.480Z,16.80
2018-01-26T08:53:48.416Z,15.80
2018-01-26T08:54:48.356Z,17.10
2018-01-26T08:55:48.296Z,16.30
2018-01-26T08:56:48.236Z,15.60
2018-01-26T08:57:48.177Z,15.20
2018-01-26T08:58:48.116Z,13.40
2018-01-26T08:59:48.057Z,15.80
2018-01-26T09:00:47.997Z,16.20
2018-01-26T09:01:47.936Z,14.30
2018-01-26T09:02:47.883Z,14.50
2018-01-26T09:03:47.819Z,15.00
2018-01-26T09:04:47.776Z,17.90
2018-01-26T09:05:47.700Z,15.00
2018-01-26T09:06:47.641Z,15.80
2018-01-26T09:07:47.578Z,14.60
2018-01-26T09:08:47.518Z,17.20
2018-01-26T09:09:47.460Z,15.50
2018-01-26T09:10:47.400Z,15.20
2018-01-26T09:11:47.338Z,16.00
2018-01-26T09:12:47.280Z,19.60
2018-01-26T09:13:47.219Z,14.40
2018-01-26T09:14:47.160Z,14.00
2018-01-26T09:15:47.101Z,15.30
2018-01-26T09:16:47.048Z,17.40
2018-01-26T09:17:46.983Z,13.50
2018-01-26T09:18:46.924Z,12.90
2018-01-26T09:19:46.865Z,16.10
2018-01-26T09:20:46.805Z,17.50
2018-01-26T09:21:46.747Z,17.00
2018-01-26T09:22:46.685Z,15.20
2018-01-26T09:23:46.625Z,13.30
2018-01-26T09:24:46.569Z,13.60
2018-01-26T09:25:46.508Z,14.50
2018-01-26T09:26:46.451Z,15.40
2018-01-26T09:27:46.388Z,14.40
2018-01-26T09:28:46.330Z,12.30
2018-01-26T09:29:46.271Z,14.60
2018-01-26T09:30:46.214Z,15.70
2018-01-26T09:31:46.152Z,13.40
2018-01-26T09:32:46.091Z,13.60
2018-01-26T09:33:46.035Z,13.20
2018-01-26T09:34:45.976Z,13.70
2018-01-26T09:35:45.916Z,12.50
2018-01-26T09:36:45.856Z,12.40
2018-01-26T09:37:45.798Z,13.80
2018-01-26T09:38:45.739Z,10.40
2018-01-26T09:39:45.680Z,10.50
2018-01-26T09:40:45.622Z,12.30
2018-01-26T09:41:45.560Z,14.90
2018-01-26T09:42:45.503Z,13.40
2018-01-26T09:43:45.445Z,12.50
2018-01-26T09:44:45.386Z,12.50
2018-01-26T09:45:45.325Z,15.10
2018-01-26T09:46:45.269Z,15.40
2018-01-26T09:47:45.207Z,12.70
2018-01-26T09:48:45.206Z,13.40
2018-01-26T09:49:45.089Z,12.80
2018-01-26T09:50:45.033Z,11.40
2018-01-26T09:51:44.975Z,13.10
2018-01-26T09:52:44.912Z,11.50
2018-01-26T09:53:44.853Z,14.80
2018-01-26T09:54:44.796Z,17.10
2018-01-26T09:55:44.737Z,14.00
2018-01-26T09:56:44.679Z,10.90
2018-01-26T09:57:44.622Z,10.30
2018-01-26T09:58:44.563Z,12.70
2018-01-26T09:59:44.529Z,11.70
2018-01-26T10:00:44.453Z,13.50
2018-01-26T10:01:44.388Z,12.90
2018-01-26T10:02:44.326Z,11.90
2018-01-26T10:03:44.266Z,13.20
2018-01-26T10:04:44.209Z,13.70
2018-01-26T10:05:44.149Z,13.00
2018-01-26T10:06:44.090Z,13.30
2018-01-26T10:07:44.033Z,14.60
2018-01-26T10:08:43.977Z,11.00
2018-01-26T10:09:43.915Z,11.20
2018-01-26T10:10:43.858Z,11.60
2018-01-26T10:11:43.798Z,11.90
2018-01-26T10:12:43.739Z,11.80
2018-01-26T10:13:43.681Z,11.30
2018-01-26T10:14:43.620Z,13.00
2018-01-26T10:15:43.565Z,11.00
2018-01-26T10:16:43.503Z,11.50
2018-01-26T10:17:43.445Z,14.70
2018-01-26T10:18:43.386Z,13.40
2018-01-26T10:19:43.328Z,13.90
2018-01-26T10:20:43.269Z,13.50
2018-01-26T10:21:43.209Z,16.00
2018-01-26T10:22:43.153Z,15.50
2018-01-26T10:23:43.094Z,15.00
2018-01-26T10:24:43.035Z,14.70
2018-01-26T10:25:42.975Z,11.60
2018-01-26T10:26:42.918Z,15.10
2018-01-26T10:27:42.857Z,15.20
2018-01-26T10:28:42.800Z,9.70
2018-01-26T10:29:42.784Z,8.10
2018-01-26T10:30:42.680Z,8.50
2018-01-26T10:31:42.622Z,8.80
2018-01-26T10:32:42.564Z,8.30
2018-01-26T10:33:42.507Z,9.20
2018-01-26T10:34:42.447Z,9.10
2018-01-26T10:35:42.387Z,10.70
2018-01-26T10:36:42.329Z,8.00
2018-01-26T10:37:42.268Z,11.00
2018-01-26T10:38:42.208Z,12.90
2018-01-26T10:39:42.152Z,10.70
2018-01-26T10:40:42.092Z,10.10
2018-01-26T10:41:42.034Z,10.30
2018-01-26T10:42:41.974Z,12.10
2018-01-26T10:43:41.914Z,11.30
2018-01-26T10:44:41.856Z,9.00
2018-01-26T10:45:41.796Z,10.20
2018-01-26T10:46:41.737Z,10.90
2018-01-26T10:47:41.679Z,8.10
2018-01-26T10:48:41.619Z,11.00
2018-01-26T10:49:41.558Z,10.00
2018-01-26T10:50:41.501Z,9.90
2018-01-26T10:51:41.441Z,7.70
2018-01-26T10:52:41.380Z,7.30
2018-01-26T10:53:41.322Z,6.10
2018-01-26T10:54:41.264Z,9.80
2018-01-26T10:55:41.205Z,7.50
2018-01-26T10:56:41.148Z,9.10
2018-01-26T10:57:41.086Z,7.30
2018-01-26T10:58:41.028Z,8.90
2018-01-26T10:59:40.969Z,7.90
2018-01-26T11:00:40.911Z,5.70
2018-01-26T11:01:40.852Z,5.70
2018-01-26T11:02:40.795Z,7.10
2018-01-26T11:03:40.734Z,5.50
2018-01-26T11:04:40.678Z,4.90
2018-01-26T11:05:40.615Z,4.70
2018-01-26T11:06:40.564Z,4.90
2018-01-26T11:07:40.500Z,7.10
2018-01-26T11:08:40.440Z,5.10
2018-01-26T11:09:40.381Z,5.30
2018-01-26T11:10:40.322Z,5.50
2018-01-26T11:11:40.266Z,6.70
2018-01-26T11:12:40.208Z,4.40
2018-01-26T11:13:40.150Z,7.60
2018-01-26T11:14:40.089Z,4.70
2018-01-26T11:15:40.032Z,4.60
2018-01-26T11:16:39.972Z,5.80
2018-01-26T11:17:39.916Z,4.30
2018-01-26T11:18:39.856Z,9.70
2018-01-26T11:19:39.803Z,4.20
2018-01-26T11:20:39.740Z,6.20
2018-01-26T11:21:39.680Z,3.90
2018-01-26T11:22:39.623Z,5.10
2018-01-26T11:23:39.564Z,5.50
2018-01-26T11:24:39.505Z,3.30
2018-01-26T11:25:39.445Z,3.60
2018-01-26T11:26:39.388Z,4.50
2018-01-26T11:27:39.330Z,6.40
2018-01-26T11:28:39.274Z,2.50
2018-01-26T11:29:39.212Z,3.20
2018-01-26T11:30:39.155Z,2.70
2018-01-26T11:31:39.098Z,3.20
2018-01-26T11:32:39.042Z,2.40
2018-01-26T11:33:38.988Z,3.80
2018-01-26T11:34:38.923Z,2.60
2018-01-26T11:35:38.864Z,2.70
2018-01-26T11:36:38.806Z,2.80
2018-01-26T11:37:38.748Z,3.00
2018-01-26T11:38:38.693Z,3.00
2018-01-26T11:39:38.634Z,2.70
2018-01-26T11:40:38.575Z,3.10
2018-01-26T11:41:38.516Z,4.20
2018-01-26T11:42:38.460Z,2.70
2018-01-26T11:43:38.400Z,2.80
2018-01-26T11:44:38.345Z,6.00
2018-01-26T11:45:38.284Z,3.40
2018-01-26T11:46:38.278Z,3.30
2018-01-26T11:47:38.169Z,3.40
2018-01-26T11:48:38.112Z,4.60
2018-01-26T11:49:38.053Z,3.10
2018-01-26T11:50:37.995Z,4.10
2018-01-26T11:51:37.938Z,5.60
2018-01-26T11:52:37.892Z,3.90
2018-01-26T11:53:37.823Z,4.30
2018-01-26T11:54:37.764Z,3.30
2018-01-26T11:55:37.706Z,3.20
2018-01-26T11:56:37.651Z,3.70
2018-01-26T11:57:37.592Z,3.40
2018-01-26T11:58:37.534Z,4.20
2018-01-26T11:59:37.470Z,3.80
2018-01-26T12:00:37.420Z,4.30
2018-01-26T12:01:37.365Z,3.10
2018-01-26T12:02:37.303Z,3.90
2018-01-26T12:03:37.248Z,2.90
2018-01-26T12:04:37.189Z,4.00
2018-01-26T12:05:37.132Z,4.70
2018-01-26T12:06:37.075Z,4.70
2018-01-26T12:07:37.015Z,3.30
2018-01-26T12:08:36.957Z,3.20
2018-01-26T12:09:36.899Z,2.80
2018-01-26T12:10:36.845Z,4.80
2018-01-26T12:11:36.784Z,4.10
2018-01-26T12:12:36.727Z,3.90
2018-01-26T12:13:36.675Z,2.60
2018-01-26T12:14:36.611Z,2.90
2018-01-26T12:15:36.556Z,2.90
2018-01-26T12:16:36.496Z,3.60
2018-01-26T12:17:36.438Z,4.70
2018-01-26T12:18:36.380Z,3.30
2018-01-26T12:19:36.327Z,3.10
2018-01-26T12:20:36.267Z,2.70
2018-01-26T12:21:36.208Z,3.90
2018-01-26T12:22:36.153Z,3.60
2018-01-26T12:23:36.094Z,3.50
2018-01-26T12:24:36.037Z,2.80
2018-01-26T12:25:35.979Z,4.00
2018-01-26T12:26:35.924Z,4.30
2018-01-26T12:27:35.863Z,3.90
2018-01-26T12:28:35.805Z,2.90
2018-01-26T12:29:35.748Z,4.70
2018-01-26T12:30:35.691Z,3.80
2018-01-26T12:31:35.634Z,2.90
2018-01-26T12:32:35.574Z,4.50
2018-01-26T12:33:35.518Z,2.70
2018-01-26T12:34:35.463Z,3.40
2018-01-26T12:35:35.403Z,3.40
2018-01-26T12:36:35.366Z,4.90
2018-01-26T12:37:35.291Z,2.90
2018-01-26T12:38:35.230Z,5.10
2018-01-26T12:39:35.174Z,3.70
2018-01-26T12:40:35.116Z,3.60
2018-01-26T12:41:35.058Z,4.50
2018-01-26T12:42:34.999Z,4.10
2018-01-26T12:43:34.943Z,3.20
2018-01-26T12:44:34.886Z,2.90
2018-01-26T12:45:34.827Z,4.50
2018-01-26T12:46:34.771Z,4.40
2018-01-26T12:47:34.712Z,5.00
2018-01-26T12:48:34.656Z,3.60
2018-01-26T12:49:34.603Z,5.70
2018-01-26T12:50:34.540Z,3.50
2018-01-26T12:51:34.486Z,2.90
2018-01-26T12:52:34.432Z,7.00
2018-01-26T12:53:34.367Z,3.20
2018-01-26T12:54:34.310Z,3.50
2018-01-26T12:55:34.253Z,3.20
2018-01-26T12:56:34.197Z,4.60
2018-01-26T12:57:34.140Z,4.70
2018-01-26T12:58:34.086Z,3.00
2018-01-26T12:59:34.024Z,3.00
2018-01-26T13:00:33.966Z,2.70
2018-01-26T13:01:33.908Z,2.30
2018-01-26T13:02:33.854Z,2.60
2018-01-26T13:03:33.795Z,4.80
2018-01-26T13:04:33.737Z,3.10
2018-01-26T13:05:33.680Z,3.20